Time;durP1;ratioP1;P1;durP2;ratioP2;P2;SDS_P1;SDS_P2;PMS_P1;PMS_P2;Temp;Humidity;BMP_temperature;BMP_pressure;BME280_temperature;BME280_humidity;BME280_pressure;Samples;Min_cycle;Max_cycle;Signal;HPM_P1;HPM_P2
2023/01/16 00:01:16;;;;;;;1.70;0.67;;;;;;;1.97;94.95;151873.13;4991870;28;20469;-85
2023/01/16 00:03:43;;;;;;;3.37;1.17;;;;;;;2.00;93.66;151880.84;4974699;28;20827;-85
2023/01/16 00:06:09;;;;;;;1.50;0.60;;;;;;;2.04;95.47;151889.84;4989804;28;20548;-85
2023/01/16 00:08:36;;;;;;;1.30;0.80;;;;;;;2.07;95.02;151898.81;4990814;28;20476;-85
2023/01/16 00:11:04;;;;;;;2.53;0.90;;;;;;;2.11;94.33;151907.84;4990368;28;20987;-85
2023/01/16 00:13:31;;;;;;;2.23;1.00;;;;;;;2.09;93.79;151902.72;4991287;28;20485;-85
2023/01/16 00:15:58;;;;;;;1.67;1.07;;;;;;;2.07;94.29;151897.53;4983557;28;20545;-85
2023/01/16 00:18:25;;;;;;;3.80;0.90;;;;;;;2.12;93.25;151911.69;5002148;28;20474;-85
2023/01/16 00:20:51;;;;;;;1.30;0.67;;;;;;;2.12;93.57;151910.44;4990994;28;20694;-85
2023/01/16 00:23:18;;;;;;;4.90;1.20;;;;;;;2.15;93.75;151918.09;5008120;28;20465;-85
2023/01/16 00:25:45;;;;;;;2.87;0.90;;;;;;;2.22;93.75;151936.13;5009910;28;20541;-85
2023/01/16 00:28:14;;;;;;;4.10;1.13;;;;;;;2.18;93.71;151927.13;4991228;28;20489;-85
2023/01/16 00:30:41;;;;;;;1.50;0.80;;;;;;;2.19;93.39;151928.41;5019997;28;20531;-85
2023/01/16 00:33:08;;;;;;;1.23;0.70;;;;;;;2.18;93.50;151925.81;4994354;28;20457;-85
2023/01/16 00:35:35;;;;;;;1.73;0.73;;;;;;;2.19;93.33;151929.72;4987030;28;20848;-85
2023/01/16 00:38:02;;;;;;;1.93;0.80;;;;;;;2.18;93.39;151927.13;4996178;28;20483;-85
2023/01/16 00:40:29;;;;;;;1.57;0.63;;;;;;;2.16;93.15;151921.97;5010115;28;20452;-85
2023/01/16 00:42:56;;;;;;;3.63;0.70;;;;;;;2.15;93.56;151919.41;4993312;28;20536;-85
2023/01/16 00:45:24;;;;;;;1.00;0.50;;;;;;;2.16;93.26;151921.97;4990236;28;20860;-85
2023/01/16 00:47:50;;;;;;;2.23;1.10;;;;;;;2.16;94.45;151921.97;4988941;28;20445;-85
2023/01/16 00:50:17;;;;;;;2.30;0.60;;;;;;;2.22;95.00;151936.13;5003245;28;20480;-85
2023/01/16 00:52:44;;;;;;;1.43;0.60;;;;;;;2.14;93.98;151916.84;5009967;28;20529;-85
2023/01/16 00:55:10;;;;;;;1.80;0.50;;;;;;;2.10;94.09;151906.53;4991874;28;20894;-85
2023/01/16 00:57:37;;;;;;;2.30;0.80;;;;;;;2.10;94.48;151905.25;4974796;28;20519;-84
2023/01/16 01:00:05;;;;;;;4.43;0.50;;;;;;;2.06;95.82;151896.28;5008571;28;20571;-85
2023/01/16 01:02:33;;;;;;;1.70;0.83;;;;;;;2.03;94.75;151888.56;4991403;28;20976;-85
2023/01/16 01:05:00;;;;;;;2.80;0.70;;;;;;;2.02;94.91;151885.97;5003132;28;20979;-85
2023/01/16 01:07:27;;;;;;;2.80;1.03;;;;;;;2.03;94.01;151888.56;5007507;28;20468;-85
2023/01/16 01:09:53;;;;;;;4.53;0.80;;;;;;;2.00;94.71;151880.84;4991937;28;21117;-85
2023/01/16 01:12:20;;;;;;;2.30;0.70;;;;;;;2.06;94.00;151895.00;4998606;28;20448;-85
2023/01/16 01:14:47;;;;;;;1.47;0.80;;;;;;;2.07;93.14;151898.81;4995077;28;20464;-85
2023/01/16 01:17:14;;;;;;;2.23;0.70;;;;;;;2.04;93.01;151891.09;5007675;28;20576;-85
2023/01/16 01:19:42;;;;;;;3.20;1.07;;;;;;;2.14;92.15;151916.84;4984881;28;20985;-85
2023/01/16 01:22:08;;;;;;;2.43;0.60;;;;;;;2.05;92.79;151893.69;4992786;28;20544;-85
2023/01/16 01:24:35;;;;;;;0.80;0.60;;;;;;;1.98;93.90;151875.72;4995743;28;20450;-85
2023/01/16 01:27:02;;;;;;;1.20;0.80;;;;;;;1.97;92.96;151873.13;5001769;28;20464;-85
2023/01/16 01:29:29;;;;;;;1.30;0.60;;;;;;;2.05;92.65;151893.69;5000919;28;20453;-85
2023/01/16 01:31:55;;;;;;;1.30;0.60;;;;;;;1.96;93.26;151870.53;5004350;28;20943;-85
2023/01/16 01:34:23;;;;;;;2.73;1.10;;;;;;;1.91;93.01;151857.69;5005690;28;20519;-85
2023/01/16 01:36:51;;;;;;;1.57;1.07;;;;;;;1.85;93.81;151842.28;5006781;28;20489;-86
2023/01/16 01:39:17;;;;;;;3.43;0.80;;;;;;;1.85;93.34;151842.28;4995249;28;20442;-85
2023/01/16 01:41:44;;;;;;;0.97;0.53;;;;;;;1.92;93.33;151860.28;4991131;28;20450;-85
2023/01/16 01:44:42;;;;;;;1.90;0.60;;;;;;;2.04;92.60;151891.09;4990560;28;20511;-85
2023/01/16 01:47:09;;;;;;;3.90;0.70;;;;;;;1.93;92.87;151862.88;4989484;28;20536;-85
2023/01/16 01:49:36;;;;;;;1.43;0.90;;;;;;;1.90;92.80;151855.16;4986732;28;20513;-85
2023/01/16 01:52:05;;;;;;;1.33;0.87;;;;;;;2.04;92.33;151891.09;4994051;28;20949;-85
2023/01/16 01:54:35;;;;;;;1.73;0.80;;;;;;;1.97;92.68;151871.81;4988734;28;20550;-85
2023/01/16 01:57:05;;;;;;;1.50;0.80;;;;;;;1.91;92.75;151856.44;4982702;28;20440;-85
2023/01/16 01:59:34;;;;;;;1.33;0.80;;;;;;;1.82;93.94;151834.56;4992880;28;20809;-85
2023/01/16 02:02:02;;;;;;;1.53;0.90;;;;;;;1.85;93.40;151842.28;5000155;28;20544;-85
2023/01/16 02:04:33;;;;;;;3.87;0.83;;;;;;;1.83;93.95;151838.41;4994730;28;20446;-85
2023/01/16 02:07:02;;;;;;;1.40;0.83;;;;;;;1.86;93.80;151844.84;4993119;28;20525;-85
2023/01/16 02:09:30;;;;;;;1.87;1.00;;;;;;;1.84;93.86;151839.72;4987058;28;20552;-85
2023/01/16 02:12:00;;;;;;;2.80;0.93;;;;;;;1.81;94.84;151832.00;4990923;28;20778;-85
2023/01/16 02:14:29;;;;;;;2.07;0.80;;;;;;;1.76;94.36;151820.44;5008754;28;20881;-85
2023/01/16 02:19:49;;;;;;;1.70;0.90;;;;;;;1.76;94.36;151820.44;4982233;28;20520;-86
2023/01/16 02:22:37;;;;;;;1.60;0.80;;;;;;;1.73;94.42;151811.41;4995651;28;20544;-86
2023/01/16 02:25:44;;;;;;;1.47;0.93;;;;;;;1.70;95.52;151805.00;4989932;28;20477;-86
2023/01/16 02:28:44;;;;;;;2.17;0.73;;;;;;;1.73;95.71;151812.72;4978313;28;20467;-85
2023/01/16 02:31:18;;;;;;;1.63;0.70;;;;;;;1.73;94.53;151811.41;4997163;28;20532;-86
2023/01/16 02:33:55;;;;;;;2.60;1.00;;;;;;;1.74;94.40;151814.00;4991079;28;20452;-84
2023/01/16 02:36:30;;;;;;;2.73;1.00;;;;;;;1.76;94.94;151820.44;4991439;28;20440;-85
2023/01/16 02:39:02;;;;;;;2.90;0.97;;;;;;;1.68;95.09;151799.88;4974045;28;20571;-85
2023/01/16 02:41:41;;;;;;;1.37;0.83;;;;;;;1.73;95.80;151812.72;4993404;28;20865;-85
2023/01/16 02:44:11;;;;;;;1.47;0.60;;;;;;;1.66;95.49;151794.75;4999217;28;20444;-85
2023/01/16 02:46:46;;;;;;;2.10;1.03;;;;;;;1.63;96.96;151785.72;4996222;28;20460;-86
2023/01/16 02:49:20;;;;;;;1.10;0.87;;;;;;;1.60;96.75;151778.00;4986907;28;20454;-85
2023/01/16 02:51:52;;;;;;;2.93;1.17;;;;;;;1.62;95.99;151783.13;5009239;28;20568;-86
2023/01/16 02:54:24;;;;;;;1.43;0.70;;;;;;;1.71;95.63;151806.28;4999814;28;20527;-85
2023/01/16 02:56:55;;;;;;;1.83;0.80;;;;;;;1.65;95.22;151790.84;4969888;28;20446;-85
2023/01/16 02:59:23;;;;;;;1.10;0.70;;;;;;;1.61;95.97;151780.59;5006131;28;20484;-85
2023/01/16 03:01:52;;;;;;;1.70;0.93;;;;;;;1.59;96.78;151776.72;4988958;28;20723;-85
2023/01/16 03:04:45;;;;;;;1.10;0.60;;;;;;;1.61;96.10;151780.59;4989993;28;20468;-85
2023/01/16 03:07:41;;;;;;;1.60;0.73;;;;;;;1.60;97.49;151779.31;4989452;28;20481;-86
2023/01/16 03:10:20;;;;;;;2.10;0.80;;;;;;;1.63;96.40;151785.72;4960127;28;20490;-86
2023/01/16 03:12:56;;;;;;;1.40;0.90;;;;;;;1.59;96.90;151775.47;4990192;28;20473;-85
2023/01/16 03:15:27;;;;;;;1.57;0.90;;;;;;;1.57;96.73;151770.28;4974576;28;20543;-86
2023/01/16 03:18:05;;;;;;;2.30;0.93;;;;;;;1.53;96.30;151760.03;5006883;28;20483;-85
2023/01/16 03:20:40;;;;;;;1.63;0.93;;;;;;;1.58;95.81;151774.19;4992650;28;20453;-85
2023/01/16 03:23:10;;;;;;;2.73;1.00;;;;;;;1.59;96.41;151775.47;4990353;28;20460;-85
2023/01/16 03:25:42;;;;;;;2.33;1.00;;;;;;;1.62;95.54;151783.13;5006383;28;20457;-85
2023/01/16 03:28:12;;;;;;;3.00;1.00;;;;;;;1.53;96.27;151761.34;4967424;28;20461;-85
2023/01/16 03:30:47;;;;;;;1.67;0.97;;;;;;;1.49;96.21;151751.03;5004723;28;20432;-85
2023/01/16 03:33:21;;;;;;;2.17;1.07;;;;;;;1.47;97.46;151745.91;5011568;28;20463;-85
2023/01/16 03:35:51;;;;;;;1.10;0.60;;;;;;;1.51;96.77;151754.91;4999439;28;20538;-85
2023/01/16 03:38:18;;;;;;;1.70;1.10;;;;;;;1.48;96.80;151748.50;4989766;28;20488;-85
2023/01/16 03:40:47;;;;;;;1.87;1.10;;;;;;;1.45;96.84;151740.78;4990673;28;20465;-85
2023/01/16 03:43:17;;;;;;;1.50;1.10;;;;;;;1.46;97.03;151743.31;4990276;28;20459;-85
2023/01/16 03:45:46;;;;;;;1.60;0.80;;;;;;;1.45;97.34;151739.47;5005264;28;20450;-85
2023/01/16 03:48:19;;;;;;;2.23;0.93;;;;;;;1.45;96.96;151739.47;4986205;28;20450;-85
2023/01/16 03:50:52;;;;;;;6.80;0.90;;;;;;;1.52;96.67;151758.75;4972775;28;20490;-85
2023/01/16 03:53:21;;;;;;;1.77;0.83;;;;;;;1.42;97.74;151731.75;4992710;28;20487;-86
2023/01/16 03:55:55;;;;;;;4.37;0.83;;;;;;;1.37;97.39;151718.91;4986790;28;20479;-86
2023/01/16 03:58:26;;;;;;;1.50;0.80;;;;;;;1.35;97.68;151713.78;4990653;28;20956;-86
2023/01/16 04:00:59;;;;;;;1.33;0.90;;;;;;;1.34;97.48;151711.19;4972952;28;20490;-86
2023/01/16 04:03:30;;;;;;;2.33;0.83;;;;;;;1.35;97.22;151713.78;5004758;28;20456;-86
2023/01/16 04:06:03;;;;;;;1.60;0.90;;;;;;;1.38;97.57;151722.75;4989610;28;20869;-86
2023/01/16 04:08:34;;;;;;;1.77;1.20;;;;;;;1.39;97.15;151724.03;4990517;28;20485;-86
2023/01/16 04:11:01;;;;;;;2.50;1.10;;;;;;;1.36;96.54;151716.31;4970549;28;20456;-86
2023/01/16 04:13:30;;;;;;;2.57;0.90;;;;;;;1.35;97.05;151713.78;4994504;28;20452;-86
2023/01/16 04:15:58;;;;;;;1.90;0.90;;;;;;;1.29;98.32;151698.38;4991082;28;20472;-86
2023/01/16 04:18:30;;;;;;;1.43;0.90;;;;;;;1.31;97.27;151703.50;4971087;28;20563;-86
2023/01/16 04:20:56;;;;;;;0.83;0.60;;;;;;;1.37;96.83;151718.91;4987275;28;20465;-86
2023/01/16 04:23:23;;;;;;;2.03;0.87;;;;;;;1.34;97.26;151711.19;4971395;28;20445;-86
2023/01/16 04:25:50;;;;;;;0.90;0.53;;;;;;;1.29;97.36;151699.66;4977527;28;20457;-87
2023/01/16 04:28:17;;;;;;;1.37;0.70;;;;;;;1.28;97.60;151697.06;4969220;28;20786;-87
2023/01/16 04:30:43;;;;;;;1.23;0.70;;;;;;;1.27;97.73;151693.22;4990339;28;20544;-87
2023/01/16 04:33:10;;;;;;;1.63;0.90;;;;;;;1.27;97.87;151693.22;4974320;28;20452;-87
2023/01/16 04:35:38;;;;;;;1.30;1.10;;;;;;;1.27;97.59;151694.53;4989886;28;20469;-87
2023/01/16 04:38:05;;;;;;;1.43;1.00;;;;;;;1.28;97.55;151697.06;5003184;28;20910;-87
2023/01/16 04:40:31;;;;;;;2.20;0.90;;;;;;;1.24;97.98;151686.81;4991041;28;20507;-86
2023/01/16 04:42:58;;;;;;;2.60;0.80;;;;;;;1.22;98.14;151682.94;5004235;28;20520;-86
2023/01/16 04:45:25;;;;;;;1.20;0.87;;;;;;;1.26;99.56;151691.94;5004805;28;20468;-87
2023/01/16 04:47:52;;;;;;;1.20;0.73;;;;;;;1.22;98.79;151681.63;5012502;28;20460;-87
2023/01/16 04:50:19;;;;;;;1.87;1.10;;;;;;;1.18;98.62;151672.69;4989923;28;20469;-86
2023/01/16 04:52:47;;;;;;;1.70;0.93;;;;;;;1.22;97.90;151682.94;4997555;28;20461;-87
2023/01/16 04:55:15;;;;;;;1.20;1.00;;;;;;;1.24;96.72;151688.06;4988679;28;20458;-86
2023/01/16 04:57:42;;;;;;;1.10;0.80;;;;;;;1.35;96.21;151715.03;4990683;28;20448;-86
2023/01/16 05:00:10;;;;;;;3.00;1.03;;;;;;;1.30;96.09;151700.94;5001276;28;20477;-86
2023/01/16 05:02:37;;;;;;;0.80;0.50;;;;;;;1.34;95.70;151712.50;4986866;28;22452;-86
2023/01/16 05:05:04;;;;;;;1.13;0.80;;;;;;;1.32;95.76;151707.38;4990289;28;20488;-86
2023/01/16 05:07:31;;;;;;;1.00;0.80;;;;;;;1.34;95.72;151711.19;5008268;28;20534;-86
2023/01/16 05:09:59;;;;;;;1.67;1.10;;;;;;;1.35;95.67;151713.78;5006574;28;20468;-86
2023/01/16 05:12:26;;;;;;;1.10;0.90;;;;;;;1.42;95.16;151733.06;4990762;28;20584;-86
2023/01/16 05:14:52;;;;;;;2.20;0.90;;;;;;;1.50;94.90;151753.63;4989090;28;20453;-86
2023/01/16 05:17:22;;;;;;;1.47;1.00;;;;;;;1.49;94.43;151751.03;4988462;28;20453;-85
2023/01/16 05:19:49;;;;;;;1.90;1.20;;;;;;;1.47;94.39;151744.59;4985322;28;20469;-86
2023/01/16 05:22:15;;;;;;;1.90;1.10;;;;;;;1.44;94.58;151736.88;4992608;28;20458;-85
2023/01/16 05:24:42;;;;;;;3.60;1.30;;;;;;;1.49;94.42;151749.72;4988464;28;20481;-85
2023/01/16 05:27:10;;;;;;;1.80;1.30;;;;;;;1.56;94.36;151767.75;4990210;28;20450;-84
2023/01/16 05:29:37;;;;;;;2.67;1.43;;;;;;;1.56;94.28;151767.75;4988744;28;20881;-85
2023/01/16 05:32:04;;;;;;;1.40;1.00;;;;;;;1.65;94.02;151790.84;4988234;28;20887;-86
2023/01/16 05:34:31;;;;;;;4.23;1.83;;;;;;;1.69;93.81;151801.16;4988999;28;20933;-85
2023/01/16 05:36:57;;;;;;;1.77;1.10;;;;;;;1.57;94.18;151770.28;4993306;28;20568;-85
2023/01/16 05:39:24;;;;;;;3.97;1.50;;;;;;;1.61;94.08;151780.59;5008407;28;20527;-86
2023/01/16 05:41:51;;;;;;;2.27;0.83;;;;;;;1.78;93.76;151824.25;4993734;28;20473;-85
2023/01/16 05:44:19;;;;;;;3.03;1.50;;;;;;;1.71;93.98;151806.28;5011730;28;20552;-86
2023/01/16 05:46:45;;;;;;;2.23;0.87;;;;;;;1.70;94.03;151803.69;4971939;28;20455;-85
2023/01/16 05:49:12;;;;;;;2.17;0.97;;;;;;;1.64;94.14;151788.31;4991009;28;20453;-85
2023/01/16 05:51:39;;;;;;;2.10;1.10;;;;;;;1.72;94.31;151808.88;4987137;28;20456;-86
2023/01/16 05:54:06;;;;;;;3.20;1.10;;;;;;;1.65;93.97;151790.84;4989091;28;20577;-85
2023/01/16 05:56:32;;;;;;;4.10;1.00;;;;;;;1.58;94.94;151772.88;4988778;28;20457;-86
2023/01/16 05:58:59;;;;;;;1.33;1.10;;;;;;;1.65;94.35;151790.84;4992618;28;20572;-86
2023/01/16 06:01:27;;;;;;;2.27;1.10;;;;;;;1.69;93.89;151802.47;5005579;28;20900;-86
2023/01/16 06:03:54;;;;;;;1.00;0.70;;;;;;;1.66;94.03;151793.44;4981880;28;20890;-86
2023/01/16 06:06:22;;;;;;;1.20;0.90;;;;;;;1.59;94.44;151775.47;4999513;28;20464;-84
2023/01/16 06:08:49;;;;;;;1.87;0.87;;;;;;;1.69;93.87;151802.47;4985332;28;20458;-86
2023/01/16 06:11:15;;;;;;;1.67;0.93;;;;;;;1.73;93.77;151811.41;4994076;28;21312;-85
2023/01/16 06:13:43;;;;;;;2.50;1.17;;;;;;;1.65;94.20;151790.84;4997208;28;21021;-86
2023/01/16 06:16:09;;;;;;;1.00;0.70;;;;;;;1.54;94.79;151763.88;4983653;28;20857;-85
2023/01/16 06:18:37;;;;;;;1.97;1.27;;;;;;;1.60;94.67;151778.00;4998869;28;20535;-86
2023/01/16 06:21:04;;;;;;;1.80;1.10;;;;;;;1.55;94.82;151766.47;4981702;28;20497;-86
2023/01/16 06:23:31;;;;;;;1.83;1.37;;;;;;;1.51;95.65;151756.16;4999378;28;20494;-86
2023/01/16 06:25:57;;;;;;;6.47;0.97;;;;;;;1.50;95.49;151752.31;4999325;28;20797;-85
2023/01/16 06:28:24;;;;;;;2.37;1.23;;;;;;;1.51;95.08;151756.16;4996718;28;20446;-86
2023/01/16 06:30:52;;;;;;;1.70;1.10;;;;;;;1.60;94.90;151778.00;4996942;28;20458;-86
2023/01/16 06:33:19;;;;;;;1.73;1.30;;;;;;;1.54;94.96;151762.56;4997082;28;20453;-86
2023/01/16 06:35:48;;;;;;;2.50;1.30;;;;;;;1.47;95.55;151744.59;4996424;28;20571;-86
2023/01/16 06:38:15;;;;;;;2.50;1.30;;;;;;;1.52;95.62;151758.75;4996300;28;20528;-86
2023/01/16 06:40:44;;;;;;;3.30;1.20;;;;;;;1.53;95.39;151761.34;4995170;28;20587;-86
2023/01/16 06:43:10;;;;;;;3.07;1.43;;;;;;;1.62;94.36;151783.13;4982385;28;20483;-86
2023/01/16 06:45:38;;;;;;;1.47;1.13;;;;;;;1.53;95.20;151761.34;4994461;28;20457;-85
2023/01/16 06:48:05;;;;;;;2.00;1.40;;;;;;;1.55;94.83;151765.16;4994007;28;20458;-85
2023/01/16 06:50:31;;;;;;;2.90;1.40;;;;;;;1.53;94.76;151760.03;4979720;28;20905;-86
2023/01/16 06:53:00;;;;;;;1.90;1.47;;;;;;;1.52;95.04;151757.44;4980609;28;20474;-86
2023/01/16 06:55:27;;;;;;;3.30;2.43;;;;;;;1.55;94.41;151765.16;4996220;28;20459;-85
2023/01/16 06:57:53;;;;;;;3.70;1.83;;;;;;;1.61;93.93;151780.59;4980812;28;20548;-86
2023/01/16 07:00:20;;;;;;;2.33;2.00;;;;;;;1.59;93.90;151776.72;4999097;28;20485;-85
2023/01/16 07:02:54;;;;;;;3.00;1.73;;;;;;;1.55;94.30;151765.16;5001636;28;20532;-85
2023/01/16 07:05:21;;;;;;;3.40;2.37;;;;;;;1.58;94.04;151774.19;4980234;28;20497;-85
2023/01/16 07:07:47;;;;;;;3.23;2.87;;;;;;;1.54;94.81;151762.56;4995671;28;20516;-85
2023/01/16 07:10:16;;;;;;;2.63;2.27;;;;;;;1.64;93.45;151788.31;4996876;28;20544;-85
2023/01/16 07:12:44;;;;;;;3.07;1.97;;;;;;;1.61;94.05;151781.91;4984792;28;20796;-85
2023/01/16 07:23:26;;;;;;;3.30;1.70;;;;;;;1.70;93.10;151805.00;4980501;28;20549;-85
2023/01/16 07:25:54;;;;;;;1.70;1.60;;;;;;;1.82;92.97;151834.56;4996640;28;20464;-85
2023/01/16 07:28:21;;;;;;;2.90;1.73;;;;;;;1.82;93.06;151834.56;4982103;28;20445;-85
2023/01/16 07:30:48;;;;;;;4.60;1.53;;;;;;;2.06;91.74;151896.28;4998777;28;20454;-86
2023/01/16 07:33:15;;;;;;;1.87;1.60;;;;;;;2.12;90.74;151911.69;4986355;28;20876;-86
2023/01/16 07:35:42;;;;;;;3.30;2.20;;;;;;;2.18;90.91;151927.13;4988086;28;20582;-86
2023/01/16 07:38:09;;;;;;;2.00;1.40;;;;;;;2.29;90.05;151955.41;4980120;28;20458;-86
2023/01/16 07:40:35;;;;;;;2.13;1.30;;;;;;;2.29;89.63;151954.13;4995042;28;20572;-86
2023/01/16 07:43:04;;;;;;;1.60;1.30;;;;;;;2.38;88.34;151978.53;4995417;28;20800;-86
2023/01/16 07:45:30;;;;;;;1.80;1.27;;;;;;;2.37;88.27;151976.00;4980841;28;20461;-86
2023/01/16 07:47:57;;;;;;;1.60;0.87;;;;;;;2.38;88.72;151977.28;4996430;28;20996;-86
2023/01/16 07:50:24;;;;;;;2.70;1.17;;;;;;;2.45;88.78;151996.56;4980713;28;20988;-86
2023/01/16 07:52:51;;;;;;;2.03;1.47;;;;;;;2.31;88.47;151960.53;4993554;28;20520;-86
2023/01/16 07:55:17;;;;;;;1.30;1.00;;;;;;;2.29;89.49;151954.13;4983541;28;20454;-86
2023/01/16 07:57:44;;;;;;;2.97;1.13;;;;;;;2.33;88.97;151965.66;4995110;28;20945;-86
2023/01/16 08:00:14;;;;;;;1.73;1.40;;;;;;;2.29;89.84;151955.41;4994853;28;20579;-86
2023/01/16 08:02:41;;;;;;;2.23;1.20;;;;;;;2.34;89.05;151966.97;4980072;28;20457;-86
2023/01/16 08:05:08;;;;;;;1.97;1.47;;;;;;;2.32;89.01;151963.13;4977201;28;20794;-86
2023/01/16 08:07:36;;;;;;;1.60;1.20;;;;;;;2.44;89.03;151993.97;4993965;28;20655;-86
2023/01/16 08:10:03;;;;;;;1.50;1.20;;;;;;;2.35;88.73;151970.84;4982512;28;20501;-87
2023/01/16 08:12:29;;;;;;;2.00;1.13;;;;;;;2.40;88.01;151983.72;4981871;28;20461;-87
2023/01/16 08:14:56;;;;;;;1.30;0.87;;;;;;;2.63;86.70;152040.25;4977458;28;20461;-86
2023/01/16 08:17:24;;;;;;;1.97;1.30;;;;;;;2.53;86.94;152014.56;4980225;28;20446;-87
2023/01/16 08:19:51;;;;;;;1.53;1.20;;;;;;;2.73;85.20;152065.97;4991674;28;20807;-86
2023/01/16 08:22:18;;;;;;;1.43;1.10;;;;;;;2.63;85.47;152041.56;4979073;28;20453;-87
2023/01/16 08:24:44;;;;;;;2.83;1.20;;;;;;;2.62;86.32;152037.72;4993804;28;20457;-87
2023/01/16 08:27:11;;;;;;;1.70;1.17;;;;;;;2.52;86.59;152011.97;4995626;28;20468;-87
2023/01/16 08:29:38;;;;;;;2.70;1.10;;;;;;;2.61;85.31;152036.44;4978468;28;20456;-86
2023/01/16 08:32:05;;;;;;;2.20;1.10;;;;;;;2.76;85.46;152073.72;4994697;28;20717;-86
2023/01/16 08:34:33;;;;;;;3.07;1.20;;;;;;;2.75;84.64;152071.16;4993727;28;20816;-86
2023/01/16 08:37:01;;;;;;;1.87;1.40;;;;;;;2.68;85.78;152053.13;5001001;28;20466;-86
2023/01/16 08:39:28;;;;;;;4.00;1.33;;;;;;;2.61;84.87;152035.13;4993782;28;20552;-86
2023/01/16 08:52:58;;;;;;;1.67;1.13;;;;;;;2.83;83.35;152091.75;4980689;28;20815;-86
2023/01/16 08:55:24;;;;;;;1.40;1.17;;;;;;;2.82;83.92;152090.44;4982356;28;20460;-86
2023/01/16 08:57:51;;;;;;;1.73;0.80;;;;;;;2.82;82.31;152089.16;4995958;28;20545;-85
2023/01/16 09:00:19;;;;;;;1.27;0.70;;;;;;;2.82;81.71;152089.16;4980313;28;20508;-85
2023/01/16 09:02:46;;;;;;;1.00;0.60;;;;;;;2.91;81.06;152112.34;4986032;28;20450;-85
2023/01/16 09:05:14;;;;;;;1.77;0.90;;;;;;;2.91;80.96;152113.56;4977550;28;20471;-85
2023/01/16 09:07:41;;;;;;;2.43;1.23;;;;;;;2.89;83.26;152108.44;4995976;28;20472;-85
2023/01/16 09:10:09;;;;;;;2.80;0.87;;;;;;;2.85;81.09;152098.19;4984593;28;20492;-85
2023/01/16 09:15:20;;;;;;;1.57;0.90;;;;;;;2.83;81.28;152091.75;4983038;28;20453;-85
2023/01/16 09:17:47;;;;;;;1.10;0.80;;;;;;;2.90;80.69;152109.75;5002192;28;20441;-86
2023/01/16 09:20:15;;;;;;;1.70;1.10;;;;;;;2.89;80.99;152108.44;5002531;28;20583;-86
2023/01/16 09:22:42;;;;;;;1.63;0.80;;;;;;;2.91;81.00;152112.34;4987257;28;20520;-85
2023/01/16 09:25:09;;;;;;;1.80;1.00;;;;;;;2.92;79.45;152114.88;4995663;28;20550;-86
2023/01/16 09:27:36;;;;;;;1.30;0.60;;;;;;;2.94;82.24;152120.00;4983602;28;20457;-86
2023/01/16 09:30:04;;;;;;;1.53;0.67;;;;;;;2.98;83.54;152130.31;4984454;28;20544;-86
2023/01/16 09:32:30;;;;;;;1.20;0.67;;;;;;;3.07;78.07;152153.50;4995724;28;20445;-86
2023/01/16 09:34:58;;;;;;;0.93;0.50;;;;;;;3.23;77.13;152193.41;4997332;28;20491;-85
2023/01/16 09:37:26;;;;;;;1.30;0.63;;;;;;;3.33;76.03;152219.13;5011599;28;20441;-85
2023/01/16 09:39:53;;;;;;;1.40;1.07;;;;;;;3.37;75.31;152230.69;5005144;28;20834;-85
2023/01/16 09:45:24;;;;;;;1.17;0.80;;;;;;;3.42;74.35;152243.56;4996378;28;20457;-86
2023/01/16 09:47:54;;;;;;;0.93;0.60;;;;;;;3.55;74.28;152275.72;4982563;28;21021;-85
2023/01/16 09:50:27;;;;;;;1.40;0.87;;;;;;;3.46;74.34;152253.88;4996073;28;20540;-85
2023/01/16 09:58:37;;;;;;;1.30;0.70;;;;;;;3.53;74.67;152270.59;4996607;28;20474;-86
2023/01/16 10:01:05;;;;;;;1.27;1.00;;;;;;;3.58;76.05;152283.47;4981451;28;20553;-86
2023/01/16 10:03:32;;;;;;;1.57;1.10;;;;;;;3.54;74.49;152274.47;4982875;28;20862;-86
2023/01/16 10:06:05;;;;;;;1.20;0.80;;;;;;;3.64;73.88;152298.91;4984916;28;20552;-85
2023/01/16 10:08:36;;;;;;;1.37;0.60;;;;;;;3.75;72.61;152325.94;4996335;28;20857;-85
2023/01/16 10:11:08;;;;;;;1.33;0.60;;;;;;;3.65;71.49;152302.75;4987450;28;20512;-86
2023/01/16 10:13:54;;;;;;;2.03;1.00;;;;;;;3.83;71.63;152347.84;4997793;28;20506;-85
2023/01/16 10:16:27;;;;;;;1.60;0.97;;;;;;;3.90;71.76;152364.56;4984267;28;20576;-85
2023/01/16 10:18:58;;;;;;;1.43;0.70;;;;;;;3.84;72.66;152349.16;4994382;28;20537;-86
2023/01/16 10:21:39;;;;;;;2.40;1.47;;;;;;;3.85;71.10;152351.69;4986006;28;20475;-85
2023/01/16 10:24:14;;;;;;;1.23;0.93;;;;;;;3.83;72.22;152346.56;4981135;28;20549;-85
2023/01/16 10:26:50;;;;;;;1.10;0.90;;;;;;;3.85;70.61;152351.69;4970102;28;20467;-85
2023/01/16 10:29:22;;;;;;;4.30;1.00;;;;;;;4.00;69.96;152391.59;4994585;28;20544;-85
2023/01/16 10:31:52;;;;;;;1.03;0.63;;;;;;;3.94;70.67;152376.19;4981262;28;20447;-85
2023/01/16 10:34:21;;;;;;;1.30;0.60;;;;;;;3.97;69.56;152382.63;4979952;28;20469;-85
2023/01/16 10:36:50;;;;;;;1.23;0.60;;;;;;;3.94;68.62;152376.19;4982951;28;20449;-85
2023/01/16 10:39:21;;;;;;;1.57;0.80;;;;;;;4.04;70.06;152401.94;4997972;28;20862;-85
2023/01/16 10:50:09;;;;;;;0.93;0.50;;;;;;;4.23;69.02;152449.59;4993411;28;20852;-85
2023/01/16 10:52:37;;;;;;;1.73;0.87;;;;;;;4.31;68.67;152470.19;4997443;28;20484;-85
2023/01/16 10:55:07;;;;;;;0.83;0.40;;;;;;;4.43;67.36;152501.09;4997732;28;20557;-85
2023/01/16 10:57:34;;;;;;;1.47;0.70;;;;;;;4.49;68.25;152515.25;4997473;28;20446;-85
2023/01/16 11:00:05;;;;;;;1.27;0.70;;;;;;;4.42;69.38;152498.50;4981473;28;20490;-85
2023/01/16 11:02:35;;;;;;;0.77;0.50;;;;;;;4.49;68.56;152516.56;4981261;28;20488;-85
2023/01/16 11:05:02;;;;;;;2.10;0.80;;;;;;;4.41;69.77;152494.66;4979439;28;20466;-85
2023/01/16 11:07:30;;;;;;;1.00;0.40;;;;;;;4.55;70.30;152532.03;4995035;28;20450;-85
2023/01/16 11:09:59;;;;;;;0.90;0.47;;;;;;;4.56;69.71;152533.28;4970420;28;20541;-84
2023/01/16 11:20:49;;;;;;;1.10;0.50;;;;;;;4.48;81.82;152513.97;4982895;28;20528;-85
2023/01/16 11:23:19;;;;;;;2.20;0.50;;;;;;;4.51;82.32;152521.69;4981992;28;20434;-84
2023/01/16 11:25:47;;;;;;;1.27;0.40;;;;;;;4.51;82.93;152521.69;4982465;28;20527;-84
2023/01/16 11:28:21;;;;;;;1.23;0.40;;;;;;;4.54;83.73;152529.44;4995835;28;20461;-84
2023/01/16 11:30:50;;;;;;;0.80;0.33;;;;;;;4.55;83.44;152530.72;4982010;28;20449;-85
2023/01/16 11:33:19;;;;;;;1.10;0.57;;;;;;;4.48;84.87;152513.97;4992928;28;20892;-84
2023/01/16 11:35:52;;;;;;;1.40;0.60;;;;;;;4.48;83.65;152513.97;4994249;28;20478;-84
2023/01/16 11:38:19;;;;;;;1.00;0.60;;;;;;;4.54;83.00;152528.13;4979531;28;20850;-85
2023/01/16 11:40:48;;;;;;;1.33;0.70;;;;;;;4.63;80.87;152551.34;4969880;28;20478;-84
2023/01/16 11:46:11;;;;;;;1.53;0.77;;;;;;;4.65;81.46;152556.50;4981138;28;20464;-84
2023/01/16 11:48:39;;;;;;;1.60;0.47;;;;;;;4.67;80.95;152562.94;4964682;28;20449;-84
2023/01/16 11:51:07;;;;;;;1.00;0.57;;;;;;;4.77;80.36;152587.41;4995926;28;20454;-84
2023/01/16 11:53:35;;;;;;;1.00;0.50;;;;;;;4.71;81.55;152573.22;4980040;28;20540;-84
2023/01/16 11:56:12;;;;;;;0.70;0.40;;;;;;;4.70;80.94;152570.66;4996009;28;20462;-85
2023/01/16 11:58:49;;;;;;;1.00;0.47;;;;;;;4.78;80.88;152590.00;4970079;28;20465;-84
2023/01/16 12:01:22;;;;;;;1.20;0.90;;;;;;;4.78;81.15;152590.00;4996404;28;20473;-84
2023/01/16 12:03:56;;;;;;;2.07;1.10;;;;;;;4.81;82.13;152597.72;4995505;28;20975;-84
2023/01/16 12:06:38;;;;;;;0.83;0.53;;;;;;;4.75;82.57;152583.56;4979826;28;20759;-85
2023/01/16 12:09:24;;;;;;;1.13;0.70;;;;;;;4.79;82.72;152593.84;4995937;28;20450;-85
2023/01/16 12:15:02;;;;;;;1.83;1.20;;;;;;;4.79;83.12;152593.84;4992987;28;20441;-84
2023/01/16 12:17:37;;;;;;;1.70;0.80;;;;;;;4.80;83.17;152596.44;4995429;28;20453;-85
2023/01/16 12:20:19;;;;;;;0.83;0.47;;;;;;;4.85;82.73;152609.31;4993859;28;20456;-85
2023/01/16 12:22:58;;;;;;;1.10;0.70;;;;;;;4.92;83.85;152627.34;4979693;28;20449;-85
2023/01/16 12:25:29;;;;;;;0.83;0.60;;;;;;;5.02;82.93;152650.56;4992777;28;20486;-84
2023/01/16 12:28:10;;;;;;;1.70;0.70;;;;;;;4.96;83.56;152635.06;4994327;28;20443;-84
2023/01/16 12:30:56;;;;;;;1.53;0.70;;;;;;;5.02;82.52;152650.56;4994278;28;20556;-85
2023/01/16 12:33:30;;;;;;;1.40;0.57;;;;;;;5.02;83.07;152650.56;4993958;28;20781;-85
2023/01/16 12:36:00;;;;;;;2.33;0.63;;;;;;;5.05;83.56;152658.31;4995523;28;20478;-85
2023/01/16 12:38:28;;;;;;;2.30;0.90;;;;;;;5.00;84.07;152645.41;4964809;28;20453;-85
2023/01/16 12:44:13;;;;;;;1.37;0.60;;;;;;;5.15;84.02;152684.06;4994407;28;20533;-85